Newburgh

Airport
ICAO code: 
KSWF
Summary
ICAO Region: 
NAM
Territory: 
Location: 
Newburgh, NY,
Coordinates: 
Aerial View: 
41° 30' 14.764" N, 74° 6' 17.269" W
Metar
Observation
KSWF 021545Z 24010G17KT 10SM BKN090 10/05 A2973
Station
Newburgh / Stewart
Date/Time
2021-12-02 15:45:00
Wind direction
240°
Wind speed
10 kts
Lowest cloud amount
broken clouds
Temperature
10°C
Dew point
5°C
Humidity
71%
Weather condition
n/a

Description

Stewart International Airport is located west of Newburgh, New York, in the southern Hudson Valley, 88.5 km north of New York City and, 23 km southwest of Poughkeepsie, New York.

Climatology

Humid continental climate (Köppen climate classification Dfa) - characterized by four seasons: cold, windy, snowy winters, mild springs, hot, humid summers, and crisp and relatively short autumns. Precipitation reaches its lowest in January and February and peaks in summer and latter half of spring.

Runways

Designator Length Width Surface Rops
16/34 1831 46 ASP Yes/Yes
9/27 3602 46 ASP Yes/Yes
Airport map: 
Aerial View: 

Accidents and Serious Incidents at or in the vicinity of KSWF

SKYbrary Partners:

Safety knowledge contributed by: